Double Eagle Ii, NM

9:47 PM MST on December 28, 2014 (GMT -0700)
Next to the Petroglyph Natl. Monument | Change Station
CLOSE
Current Station
Personal Weather Station
Location: Albuquerque, NM
Elevation: 5245 ft
Nearby Weather Stations
Active Advisory: Special Statement

Elev 5245 ft 35.11 °N, 106.74 °W | Updated 8 seconds ago

Clear
Clear
24.5 °F
Feels Like 24 °F
N
0.5
Wind Variable Wind from SW
Gusts 1.2 mph

Today
High -- | Low -- °F
--% Chance of Precip.
Yesterday
High -- | Low -- °F
Precip. -- in
7:14 AM 5:03 PM
First Quarter, 55% visible
Pressure 30.16 in
Visibility 10.0 miles
Clouds Clear
Windchill 24 °F
Dew Point 8 °F
Humidity 50%
Rainfall 0.00 in
Snow Depth Not available.
UV 0 out of 12
Pollen 1.10 out of 12
Air Quality Not available.
Flu Activity Not available.
METAR KABQ 290352Z 10003KT 10SM CLR M03/M11 A3007 RMK AO2 SLP212 T10331111

More Conditions Fewer Conditions

Pressure 30.16 in
Visibility 10.0 miles
Clouds Clear
Windchill 24 °F
Dew Point 8 °F
Humidity 50%
Rainfall 0.00 in
Snow Depth Not available.
UV 0 out of 12
Pollen 1.10 out of 12
Air Quality Not available.
Flu Activity Not available.
METAR KABQ 290352Z 10003KT 10SM CLR M03/M11 A3007 RMK AO2 SLP212 T10331111

More Conditions Fewer Conditions

10-Day Weather Forecast

Almanac

Astronomy

Dec. 28, 2014 Rise Set
Actual Time
Civil Twilight
Nautical Twilight
Astronomical Twilight
Moon
Length of Visible Light
Length of Day
Tomorrow will be .
, % of the Moon is Illuminated

Today's Extremes

State Highs State Lows

Community

WunderPhotos

Upload Photos

1,781,530 photos uploaded!

WunderBlogs® & News

Nearby

Air Quality

  Air Quality AQ Index Pollutant
Not available.

Snow Depth

Station Depth Elevation

Earthquake Activity

City Distance Mag. Time & Date
Minimum magnitude displayed is 2.5.

Coastal Water Temperatures

Place Temperature

Nearby Weather Stations